sensor_id;sensor_type;location;lat;lon;timestamp;P1;durP1;ratioP1;P2;durP2;ratioP2
9950;SDS011;24074;49.254;6.702;2024-02-26T00:01:23;2.07;;;0.97;;
9950;SDS011;24074;49.254;6.702;2024-02-26T00:03:49;1.27;;;1.10;;
9950;SDS011;24074;49.254;6.702;2024-02-26T00:06:15;2.17;;;1.10;;
9950;SDS011;24074;49.254;6.702;2024-02-26T00:08:40;2.47;;;1.10;;
9950;SDS011;24074;49.254;6.702;2024-02-26T00:11:06;2.30;;;1.00;;
9950;SDS011;24074;49.254;6.702;2024-02-26T00:13:31;1.10;;;1.00;;
9950;SDS011;24074;49.254;6.702;2024-02-26T00:15:57;1.50;;;1.23;;
9950;SDS011;24074;49.254;6.702;2024-02-26T00:18:22;1.17;;;0.80;;
9950;SDS011;24074;49.254;6.702;2024-02-26T00:20:48;0.93;;;0.87;;
9950;SDS011;24074;49.254;6.702;2024-02-26T00:23:16;1.57;;;0.90;;
9950;SDS011;24074;49.254;6.702;2024-02-26T00:25:42;1.80;;;1.10;;
9950;SDS011;24074;49.254;6.702;2024-02-26T00:28:08;1.23;;;1.00;;
9950;SDS011;24074;49.254;6.702;2024-02-26T00:30:35;1.20;;;0.93;;
9950;SDS011;24074;49.254;6.702;2024-02-26T00:33:00;0.93;;;0.90;;
9950;SDS011;24074;49.254;6.702;2024-02-26T00:35:26;1.50;;;0.93;;
9950;SDS011;24074;49.254;6.702;2024-02-26T00:37:52;1.60;;;0.90;;
9950;SDS011;24074;49.254;6.702;2024-02-26T00:40:18;1.73;;;1.03;;
9950;SDS011;24074;49.254;6.702;2024-02-26T00:42:43;1.73;;;1.10;;
9950;SDS011;24074;49.254;6.702;2024-02-26T00:45:11;1.30;;;1.00;;
9950;SDS011;24074;49.254;6.702;2024-02-26T00:47:37;1.23;;;1.03;;
9950;SDS011;24074;49.254;6.702;2024-02-26T00:50:06;1.10;;;1.00;;
9950;SDS011;24074;49.254;6.702;2024-02-26T00:52:33;3.33;;;1.00;;
9950;SDS011;24074;49.254;6.702;2024-02-26T00:54:59;3.70;;;1.07;;
9950;SDS011;24074;49.254;6.702;2024-02-26T00:57:25;1.20;;;0.97;;
9950;SDS011;24074;49.254;6.702;2024-02-26T00:59:50;2.77;;;1.20;;
9950;SDS011;24074;49.254;6.702;2024-02-26T01:02:16;1.30;;;1.00;;
9950;SDS011;24074;49.254;6.702;2024-02-26T01:04:41;1.97;;;1.10;;
9950;SDS011;24074;49.254;6.702;2024-02-26T01:07:07;2.10;;;1.23;;
9950;SDS011;24074;49.254;6.702;2024-02-26T01:09:33;1.80;;;1.10;;
9950;SDS011;24074;49.254;6.702;2024-02-26T01:11:59;1.30;;;1.10;;
9950;SDS011;24074;49.254;6.702;2024-02-26T01:14:25;1.20;;;1.10;;
9950;SDS011;24074;49.254;6.702;2024-02-26T01:16:50;2.47;;;1.30;;
9950;SDS011;24074;49.254;6.702;2024-02-26T01:19:19;1.37;;;1.20;;
9950;SDS011;24074;49.254;6.702;2024-02-26T01:21:44;1.33;;;1.00;;
9950;SDS011;24074;49.254;6.702;2024-02-26T01:24:10;2.03;;;1.27;;
9950;SDS011;24074;49.254;6.702;2024-02-26T01:26:36;1.17;;;1.07;;
9950;SDS011;24074;49.254;6.702;2024-02-26T01:29:01;1.60;;;1.13;;
9950;SDS011;24074;49.254;6.702;2024-02-26T01:31:27;1.30;;;1.20;;
9950;SDS011;24074;49.254;6.702;2024-02-26T01:33:52;1.93;;;1.00;;
9950;SDS011;24074;49.254;6.702;2024-02-26T01:36:18;1.30;;;1.20;;
9950;SDS011;24074;49.254;6.702;2024-02-26T01:38:44;1.30;;;1.20;;
9950;SDS011;24074;49.254;6.702;2024-02-26T01:41:09;2.17;;;1.40;;
9950;SDS011;24074;49.254;6.702;2024-02-26T01:43:35;1.37;;;1.10;;
9950;SDS011;24074;49.254;6.702;2024-02-26T01:46:00;1.30;;;1.20;;
9950;SDS011;24074;49.254;6.702;2024-02-26T01:48:26;1.73;;;1.30;;
9950;SDS011;24074;49.254;6.702;2024-02-26T01:50:51;2.23;;;1.10;;
9950;SDS011;24074;49.254;6.702;2024-02-26T01:53:17;1.67;;;1.20;;
9950;SDS011;24074;49.254;6.702;2024-02-26T01:55:44;1.87;;;1.23;;
9950;SDS011;24074;49.254;6.702;2024-02-26T01:58:10;1.60;;;1.20;;
9950;SDS011;24074;49.254;6.702;2024-02-26T02:00:36;2.73;;;1.40;;
9950;SDS011;24074;49.254;6.702;2024-02-26T02:03:03;1.30;;;1.10;;
9950;SDS011;24074;49.254;6.702;2024-02-26T02:05:30;1.73;;;1.20;;
9950;SDS011;24074;49.254;6.702;2024-02-26T02:07:56;1.70;;;1.37;;
9950;SDS011;24074;49.254;6.702;2024-02-26T02:10:22;1.53;;;1.13;;
9950;SDS011;24074;49.254;6.702;2024-02-26T02:12:50;1.47;;;1.30;;
9950;SDS011;24074;49.254;6.702;2024-02-26T02:15:15;1.47;;;1.30;;
9950;SDS011;24074;49.254;6.702;2024-02-26T02:17:41;1.50;;;1.40;;
9950;SDS011;24074;49.254;6.702;2024-02-26T02:20:14;2.13;;;1.30;;
9950;SDS011;24074;49.254;6.702;2024-02-26T02:22:41;2.27;;;1.50;;
9950;SDS011;24074;49.254;6.702;2024-02-26T02:25:07;1.50;;;1.37;;
9950;SDS011;24074;49.254;6.702;2024-02-26T02:27:33;2.30;;;1.30;;
9950;SDS011;24074;49.254;6.702;2024-02-26T02:29:59;1.50;;;1.37;;
9950;SDS011;24074;49.254;6.702;2024-02-26T02:32:28;2.80;;;1.67;;
9950;SDS011;24074;49.254;6.702;2024-02-26T02:34:55;2.20;;;1.40;;
9950;SDS011;24074;49.254;6.702;2024-02-26T02:37:21;1.30;;;1.20;;
9950;SDS011;24074;49.254;6.702;2024-02-26T02:39:47;1.77;;;1.33;;
9950;SDS011;24074;49.254;6.702;2024-02-26T02:42:12;1.57;;;1.40;;
9950;SDS011;24074;49.254;6.702;2024-02-26T02:44:38;1.70;;;1.60;;
9950;SDS011;24074;49.254;6.702;2024-02-26T02:47:03;1.93;;;1.40;;
9950;SDS011;24074;49.254;6.702;2024-02-26T02:49:29;1.80;;;1.40;;
9950;SDS011;24074;49.254;6.702;2024-02-26T02:51:55;1.63;;;1.30;;
9950;SDS011;24074;49.254;6.702;2024-02-26T02:54:22;1.40;;;1.30;;
9950;SDS011;24074;49.254;6.702;2024-02-26T02:56:48;1.50;;;1.40;;
9950;SDS011;24074;49.254;6.702;2024-02-26T02:59:13;2.37;;;1.50;;
9950;SDS011;24074;49.254;6.702;2024-02-26T03:01:39;2.57;;;1.40;;
9950;SDS011;24074;49.254;6.702;2024-02-26T03:04:04;2.20;;;1.40;;
9950;SDS011;24074;49.254;6.702;2024-02-26T03:06:30;2.50;;;1.50;;
9950;SDS011;24074;49.254;6.702;2024-02-26T03:08:55;1.40;;;1.30;;
9950;SDS011;24074;49.254;6.702;2024-02-26T03:11:21;3.00;;;1.53;;
9950;SDS011;24074;49.254;6.702;2024-02-26T03:13:47;1.37;;;1.27;;
9950;SDS011;24074;49.254;6.702;2024-02-26T03:16:12;1.57;;;1.30;;
9950;SDS011;24074;49.254;6.702;2024-02-26T03:18:38;1.63;;;1.20;;
9950;SDS011;24074;49.254;6.702;2024-02-26T03:21:05;2.30;;;1.20;;
9950;SDS011;24074;49.254;6.702;2024-02-26T03:23:31;1.27;;;1.10;;
9950;SDS011;24074;49.254;6.702;2024-02-26T03:25:57;1.40;;;1.27;;
9950;SDS011;24074;49.254;6.702;2024-02-26T03:28:23;2.70;;;1.40;;
9950;SDS011;24074;49.254;6.702;2024-02-26T03:30:48;1.83;;;1.10;;
9950;SDS011;24074;49.254;6.702;2024-02-26T03:33:14;1.30;;;1.20;;
9950;SDS011;24074;49.254;6.702;2024-02-26T03:35:39;1.30;;;1.20;;
9950;SDS011;24074;49.254;6.702;2024-02-26T03:38:05;1.70;;;1.50;;
9950;SDS011;24074;49.254;6.702;2024-02-26T03:40:31;1.97;;;1.20;;
9950;SDS011;24074;49.254;6.702;2024-02-26T03:42:57;1.87;;;1.20;;
9950;SDS011;24074;49.254;6.702;2024-02-26T03:45:23;1.37;;;1.20;;
9950;SDS011;24074;49.254;6.702;2024-02-26T03:47:50;1.37;;;1.20;;
9950;SDS011;24074;49.254;6.702;2024-02-26T03:50:16;1.80;;;1.30;;
9950;SDS011;24074;49.254;6.702;2024-02-26T03:52:42;1.63;;;1.10;;
9950;SDS011;24074;49.254;6.702;2024-02-26T03:55:08;1.73;;;1.27;;
9950;SDS011;24074;49.254;6.702;2024-02-26T03:57:34;1.33;;;1.13;;
9950;SDS011;24074;49.254;6.702;2024-02-26T04:00:00;2.10;;;1.30;;
9950;SDS011;24074;49.254;6.702;2024-02-26T04:02:26;2.00;;;1.17;;
9950;SDS011;24074;49.254;6.702;2024-02-26T04:04:52;1.27;;;1.10;;
9950;SDS011;24074;49.254;6.702;2024-02-26T04:07:17;1.40;;;1.07;;
9950;SDS011;24074;49.254;6.702;2024-02-26T04:09:43;1.60;;;1.17;;
9950;SDS011;24074;49.254;6.702;2024-02-26T04:12:09;1.20;;;1.10;;
9950;SDS011;24074;49.254;6.702;2024-02-26T04:14:35;1.33;;;1.00;;
9950;SDS011;24074;49.254;6.702;2024-02-26T04:17:01;0.83;;;0.80;;
9950;SDS011;24074;49.254;6.702;2024-02-26T04:19:26;1.43;;;1.10;;
9950;SDS011;24074;49.254;6.702;2024-02-26T04:21:52;1.10;;;1.00;;
9950;SDS011;24074;49.254;6.702;2024-02-26T04:24:17;1.17;;;0.90;;
9950;SDS011;24074;49.254;6.702;2024-02-26T04:26:43;0.90;;;0.90;;
9950;SDS011;24074;49.254;6.702;2024-02-26T04:29:08;1.10;;;1.00;;
9950;SDS011;24074;49.254;6.702;2024-02-26T04:31:34;1.13;;;1.03;;
9950;SDS011;24074;49.254;6.702;2024-02-26T04:34:00;1.33;;;0.90;;
9950;SDS011;24074;49.254;6.702;2024-02-26T04:36:25;1.67;;;0.87;;
9950;SDS011;24074;49.254;6.702;2024-02-26T04:38:51;0.90;;;0.80;;
9950;SDS011;24074;49.254;6.702;2024-02-26T04:41:16;1.10;;;1.00;;
9950;SDS011;24074;49.254;6.702;2024-02-26T04:43:42;0.80;;;0.80;;
9950;SDS011;24074;49.254;6.702;2024-02-26T04:46:08;0.80;;;0.80;;
9950;SDS011;24074;49.254;6.702;2024-02-26T04:48:34;1.53;;;1.00;;
9950;SDS011;24074;49.254;6.702;2024-02-26T04:51:01;1.10;;;0.90;;
9950;SDS011;24074;49.254;6.702;2024-02-26T04:53:27;0.90;;;0.80;;
9950;SDS011;24074;49.254;6.702;2024-02-26T04:55:52;1.30;;;1.10;;
9950;SDS011;24074;49.254;6.702;2024-02-26T04:58:18;1.10;;;1.00;;
9950;SDS011;24074;49.254;6.702;2024-02-26T05:00:43;1.10;;;1.00;;
9950;SDS011;24074;49.254;6.702;2024-02-26T05:03:09;1.70;;;1.30;;
9950;SDS011;24074;49.254;6.702;2024-02-26T05:05:40;1.80;;;1.10;;
9950;SDS011;24074;49.254;6.702;2024-02-26T05:08:06;1.30;;;1.17;;
9950;SDS011;24074;49.254;6.702;2024-02-26T05:10:32;1.27;;;1.17;;
9950;SDS011;24074;49.254;6.702;2024-02-26T05:12:58;1.53;;;1.30;;
9950;SDS011;24074;49.254;6.702;2024-02-26T05:15:23;1.50;;;1.40;;
9950;SDS011;24074;49.254;6.702;2024-02-26T05:17:49;1.30;;;1.20;;
9950;SDS011;24074;49.254;6.702;2024-02-26T05:20:15;1.77;;;1.47;;
9950;SDS011;24074;49.254;6.702;2024-02-26T05:22:40;1.77;;;1.30;;
9950;SDS011;24074;49.254;6.702;2024-02-26T05:25:07;1.60;;;1.30;;
9950;SDS011;24074;49.254;6.702;2024-02-26T05:27:32;1.77;;;1.20;;
9950;SDS011;24074;49.254;6.702;2024-02-26T05:29:58;1.37;;;1.20;;
9950;SDS011;24074;49.254;6.702;2024-02-26T05:32:23;1.03;;;0.93;;
9950;SDS011;24074;49.254;6.702;2024-02-26T05:34:49;1.47;;;1.20;;
9950;SDS011;24074;49.254;6.702;2024-02-26T05:37:15;1.10;;;0.90;;
9950;SDS011;24074;49.254;6.702;2024-02-26T05:39:40;2.03;;;1.10;;
9950;SDS011;24074;49.254;6.702;2024-02-26T05:42:06;1.40;;;0.93;;
9950;SDS011;24074;49.254;6.702;2024-02-26T05:44:33;1.10;;;1.00;;
9950;SDS011;24074;49.254;6.702;2024-02-26T05:46:59;1.20;;;1.10;;
9950;SDS011;24074;49.254;6.702;2024-02-26T05:49:25;1.60;;;1.37;;
9950;SDS011;24074;49.254;6.702;2024-02-26T05:51:50;1.40;;;1.30;;
9950;SDS011;24074;49.254;6.702;2024-02-26T05:54:16;1.70;;;1.40;;
9950;SDS011;24074;49.254;6.702;2024-02-26T05:56:41;2.30;;;1.20;;
9950;SDS011;24074;49.254;6.702;2024-02-26T05:59:07;1.50;;;1.40;;
9950;SDS011;24074;49.254;6.702;2024-02-26T06:01:33;1.33;;;1.17;;
9950;SDS011;24074;49.254;6.702;2024-02-26T06:04:01;1.50;;;1.40;;
9950;SDS011;24074;49.254;6.702;2024-02-26T06:06:26;2.10;;;1.40;;
9950;SDS011;24074;49.254;6.702;2024-02-26T06:08:52;1.40;;;1.30;;
9950;SDS011;24074;49.254;6.702;2024-02-26T06:11:18;2.63;;;1.20;;
9950;SDS011;24074;49.254;6.702;2024-02-26T06:13:44;1.57;;;1.30;;
9950;SDS011;24074;49.254;6.702;2024-02-26T06:16:09;2.53;;;1.20;;
9950;SDS011;24074;49.254;6.702;2024-02-26T06:18:35;1.60;;;1.50;;
9950;SDS011;24074;49.254;6.702;2024-02-26T06:21:00;1.40;;;1.30;;
9950;SDS011;24074;49.254;6.702;2024-02-26T06:23:26;2.60;;;1.30;;
9950;SDS011;24074;49.254;6.702;2024-02-26T06:25:52;2.57;;;1.50;;
9950;SDS011;24074;49.254;6.702;2024-02-26T06:28:17;1.53;;;1.43;;
9950;SDS011;24074;49.254;6.702;2024-02-26T06:30:43;1.60;;;1.50;;
9950;SDS011;24074;49.254;6.702;2024-02-26T06:33:09;1.60;;;1.50;;
9950;SDS011;24074;49.254;6.702;2024-02-26T06:35:35;2.60;;;1.53;;
9950;SDS011;24074;49.254;6.702;2024-02-26T06:38:01;1.50;;;1.40;;
9950;SDS011;24074;49.254;6.702;2024-02-26T06:40:27;1.90;;;1.60;;
9950;SDS011;24074;49.254;6.702;2024-02-26T06:42:52;1.80;;;1.70;;
9950;SDS011;24074;49.254;6.702;2024-02-26T06:45:18;3.57;;;2.07;;
9950;SDS011;24074;49.254;6.702;2024-02-26T06:47:44;3.47;;;2.30;;
9950;SDS011;24074;49.254;6.702;2024-02-26T06:50:11;2.90;;;2.60;;
9950;SDS011;24074;49.254;6.702;2024-02-26T06:52:38;2.50;;;2.10;;
9950;SDS011;24074;49.254;6.702;2024-02-26T06:55:04;2.97;;;2.03;;
9950;SDS011;24074;49.254;6.702;2024-02-26T06:57:32;2.10;;;1.90;;
9950;SDS011;24074;49.254;6.702;2024-02-26T06:59:58;1.63;;;1.40;;
9950;SDS011;24074;49.254;6.702;2024-02-26T07:02:24;1.63;;;1.50;;
9950;SDS011;24074;49.254;6.702;2024-02-26T07:04:49;1.90;;;1.80;;
9950;SDS011;24074;49.254;6.702;2024-02-26T07:07:15;1.40;;;1.20;;
9950;SDS011;24074;49.254;6.702;2024-02-26T07:09:43;1.50;;;1.40;;
9950;SDS011;24074;49.254;6.702;2024-02-26T07:12:08;1.57;;;1.43;;
9950;SDS011;24074;49.254;6.702;2024-02-26T07:14:34;1.63;;;1.37;;
9950;SDS011;24074;49.254;6.702;2024-02-26T07:17:00;1.70;;;1.40;;
9950;SDS011;24074;49.254;6.702;2024-02-26T07:19:25;1.90;;;1.30;;
9950;SDS011;24074;49.254;6.702;2024-02-26T07:21:51;1.27;;;1.17;;
9950;SDS011;24074;49.254;6.702;2024-02-26T07:24:17;1.97;;;1.33;;
9950;SDS011;24074;49.254;6.702;2024-02-26T07:26:42;1.87;;;1.40;;
9950;SDS011;24074;49.254;6.702;2024-02-26T07:29:08;1.70;;;1.40;;
9950;SDS011;24074;49.254;6.702;2024-02-26T07:31:33;2.13;;;1.50;;
9950;SDS011;24074;49.254;6.702;2024-02-26T07:33:59;2.00;;;1.30;;
9950;SDS011;24074;49.254;6.702;2024-02-26T07:36:24;1.77;;;1.30;;
9950;SDS011;24074;49.254;6.702;2024-02-26T07:38:51;1.30;;;1.20;;
9950;SDS011;24074;49.254;6.702;2024-02-26T07:41:19;2.43;;;1.30;;
9950;SDS011;24074;49.254;6.702;2024-02-26T07:43:45;1.37;;;1.27;;
9950;SDS011;24074;49.254;6.702;2024-02-26T07:46:13;1.33;;;1.23;;
9950;SDS011;24074;49.254;6.702;2024-02-26T07:48:39;1.70;;;1.40;;
9950;SDS011;24074;49.254;6.702;2024-02-26T07:51:04;2.17;;;1.50;;
9950;SDS011;24074;49.254;6.702;2024-02-26T07:53:30;1.70;;;1.53;;
9950;SDS011;24074;49.254;6.702;2024-02-26T07:55:56;1.37;;;1.27;;
9950;SDS011;24074;49.254;6.702;2024-02-26T07:58:22;2.87;;;1.40;;
9950;SDS011;24074;49.254;6.702;2024-02-26T08:00:48;1.20;;;1.10;;
9950;SDS011;24074;49.254;6.702;2024-02-26T08:03:14;1.60;;;1.50;;
9950;SDS011;24074;49.254;6.702;2024-02-26T08:05:40;1.50;;;1.40;;
9950;SDS011;24074;49.254;6.702;2024-02-26T08:08:08;1.10;;;1.00;;
9950;SDS011;24074;49.254;6.702;2024-02-26T08:10:34;1.30;;;1.20;;
9950;SDS011;24074;49.254;6.702;2024-02-26T08:13:00;1.87;;;1.30;;
9950;SDS011;24074;49.254;6.702;2024-02-26T08:15:33;1.60;;;1.40;;
9950;SDS011;24074;49.254;6.702;2024-02-26T08:17:59;1.20;;;1.10;;
9950;SDS011;24074;49.254;6.702;2024-02-26T08:20:27;1.30;;;1.20;;
9950;SDS011;24074;49.254;6.702;2024-02-26T08:22:53;2.53;;;1.37;;
9950;SDS011;24074;49.254;6.702;2024-02-26T08:25:18;1.73;;;1.43;;
9950;SDS011;24074;49.254;6.702;2024-02-26T08:27:44;1.57;;;1.27;;
9950;SDS011;24074;49.254;6.702;2024-02-26T08:30:10;1.40;;;1.30;;
9950;SDS011;24074;49.254;6.702;2024-02-26T08:32:38;1.40;;;1.30;;
9950;SDS011;24074;49.254;6.702;2024-02-26T08:35:04;3.33;;;1.30;;
9950;SDS011;24074;49.254;6.702;2024-02-26T08:37:30;2.20;;;1.30;;
9950;SDS011;24074;49.254;6.702;2024-02-26T08:39:55;2.80;;;1.40;;
9950;SDS011;24074;49.254;6.702;2024-02-26T08:42:21;2.13;;;1.60;;
9950;SDS011;24074;49.254;6.702;2024-02-26T08:44:49;1.93;;;1.40;;
9950;SDS011;24074;49.254;6.702;2024-02-26T08:47:14;1.80;;;1.50;;
9950;SDS011;24074;49.254;6.702;2024-02-26T08:49:44;1.80;;;1.40;;
9950;SDS011;24074;49.254;6.702;2024-02-26T08:52:10;1.73;;;1.60;;
9950;SDS011;24074;49.254;6.702;2024-02-26T08:54:36;2.37;;;1.63;;
9950;SDS011;24074;49.254;6.702;2024-02-26T08:57:02;1.83;;;1.67;;
9950;SDS011;24074;49.254;6.702;2024-02-26T08:59:28;1.50;;;1.30;;
9950;SDS011;24074;49.254;6.702;2024-02-26T09:01:53;1.70;;;1.57;;
9950;SDS011;24074;49.254;6.702;2024-02-26T09:04:19;1.40;;;1.30;;
9950;SDS011;24074;49.254;6.702;2024-02-26T09:06:45;2.53;;;1.50;;
9950;SDS011;24074;49.254;6.702;2024-02-26T09:09:11;3.83;;;1.47;;
9950;SDS011;24074;49.254;6.702;2024-02-26T09:11:36;2.53;;;1.63;;
9950;SDS011;24074;49.254;6.702;2024-02-26T09:14:02;2.27;;;1.50;;
9950;SDS011;24074;49.254;6.702;2024-02-26T09:16:30;1.83;;;1.37;;
9950;SDS011;24074;49.254;6.702;2024-02-26T09:18:56;1.37;;;1.23;;
9950;SDS011;24074;49.254;6.702;2024-02-26T09:21:22;1.80;;;1.50;;
9950;SDS011;24074;49.254;6.702;2024-02-26T09:23:49;1.40;;;1.30;;
9950;SDS011;24074;49.254;6.702;2024-02-26T09:26:16;1.77;;;1.30;;
9950;SDS011;24074;49.254;6.702;2024-02-26T09:28:42;1.20;;;1.10;;
9950;SDS011;24074;49.254;6.702;2024-02-26T09:31:08;1.70;;;1.60;;
9950;SDS011;24074;49.254;6.702;2024-02-26T09:33:33;1.83;;;1.60;;
9950;SDS011;24074;49.254;6.702;2024-02-26T09:36:00;1.53;;;1.10;;
9950;SDS011;24074;49.254;6.702;2024-02-26T09:38:28;1.40;;;1.30;;
9950;SDS011;24074;49.254;6.702;2024-02-26T09:40:55;1.70;;;1.30;;
9950;SDS011;24074;49.254;6.702;2024-02-26T09:43:22;1.30;;;1.20;;
9950;SDS011;24074;49.254;6.702;2024-02-26T09:45:52;1.50;;;1.30;;
9950;SDS011;24074;49.254;6.702;2024-02-26T09:48:18;1.60;;;1.40;;
9950;SDS011;24074;49.254;6.702;2024-02-26T09:50:46;1.70;;;1.30;;
9950;SDS011;24074;49.254;6.702;2024-02-26T09:53:12;1.80;;;1.23;;
9950;SDS011;24074;49.254;6.702;2024-02-26T09:55:39;1.70;;;1.10;;
9950;SDS011;24074;49.254;6.702;2024-02-26T09:58:05;2.33;;;1.10;;
9950;SDS011;24074;49.254;6.702;2024-02-26T10:00:32;1.60;;;1.30;;
9950;SDS011;24074;49.254;6.702;2024-02-26T10:03:02;1.10;;;1.00;;
9950;SDS011;24074;49.254;6.702;2024-02-26T10:05:29;1.70;;;1.10;;
9950;SDS011;24074;49.254;6.702;2024-02-26T10:07:57;1.40;;;1.10;;
9950;SDS011;24074;49.254;6.702;2024-02-26T10:10:25;1.60;;;1.20;;
9950;SDS011;24074;49.254;6.702;2024-02-26T10:12:52;1.50;;;1.23;;
9950;SDS011;24074;49.254;6.702;2024-02-26T10:15:18;1.37;;;1.20;;
9950;SDS011;24074;49.254;6.702;2024-02-26T10:17:44;1.33;;;1.10;;
9950;SDS011;24074;49.254;6.702;2024-02-26T10:22:43;1.20;;;1.10;;
9950;SDS011;24074;49.254;6.702;2024-02-26T10:25:11;2.13;;;1.10;;
9950;SDS011;24074;49.254;6.702;2024-02-26T10:27:37;1.40;;;0.90;;
9950;SDS011;24074;49.254;6.702;2024-02-26T10:30:26;1.83;;;1.10;;
9950;SDS011;24074;49.254;6.702;2024-02-26T10:32:51;0.90;;;0.90;;
9950;SDS011;24074;49.254;6.702;2024-02-26T10:35:17;1.30;;;0.93;;
9950;SDS011;24074;49.254;6.702;2024-02-26T10:37:45;1.13;;;1.03;;
9950;SDS011;24074;49.254;6.702;2024-02-26T10:40:12;1.20;;;1.10;;
9950;SDS011;24074;49.254;6.702;2024-02-26T10:42:41;1.10;;;1.00;;
9950;SDS011;24074;49.254;6.702;2024-02-26T10:45:08;0.90;;;0.90;;
9950;SDS011;24074;49.254;6.702;2024-02-26T10:47:35;1.10;;;0.93;;
9950;SDS011;24074;49.254;6.702;2024-02-26T10:50:04;1.00;;;0.90;;
9950;SDS011;24074;49.254;6.702;2024-02-26T10:52:31;1.03;;;1.00;;
9950;SDS011;24074;49.254;6.702;2024-02-26T10:55:00;0.70;;;0.70;;
9950;SDS011;24074;49.254;6.702;2024-02-26T10:57:28;0.60;;;0.60;;
9950;SDS011;24074;49.254;6.702;2024-02-26T11:00:03;0.90;;;0.80;;
9950;SDS011;24074;49.254;6.702;2024-02-26T11:02:33;2.20;;;0.80;;
9950;SDS011;24074;49.254;6.702;2024-02-26T11:05:00;0.60;;;0.60;;
9950;SDS011;24074;49.254;6.702;2024-02-26T11:07:31;0.80;;;0.70;;
9950;SDS011;24074;49.254;6.702;2024-02-26T11:09:58;2.07;;;0.70;;
9950;SDS011;24074;49.254;6.702;2024-02-26T11:12:25;0.87;;;0.60;;
9950;SDS011;24074;49.254;6.702;2024-02-26T11:14:53;0.60;;;0.60;;
9950;SDS011;24074;49.254;6.702;2024-02-26T11:17:22;1.00;;;0.90;;
9950;SDS011;24074;49.254;6.702;2024-02-26T11:19:49;2.43;;;0.90;;
9950;SDS011;24074;49.254;6.702;2024-02-26T11:22:16;0.97;;;0.87;;
9950;SDS011;24074;49.254;6.702;2024-02-26T11:24:42;1.00;;;0.70;;
9950;SDS011;24074;49.254;6.702;2024-02-26T11:27:08;1.23;;;0.70;;
9950;SDS011;24074;49.254;6.702;2024-02-26T11:29:40;1.00;;;0.87;;
9950;SDS011;24074;49.254;6.702;2024-02-26T11:32:10;1.17;;;0.80;;
9950;SDS011;24074;49.254;6.702;2024-02-26T11:34:36;0.90;;;0.90;;
9950;SDS011;24074;49.254;6.702;2024-02-26T11:37:08;1.47;;;1.00;;
9950;SDS011;24074;49.254;6.702;2024-02-26T11:39:41;0.80;;;0.80;;
9950;SDS011;24074;49.254;6.702;2024-02-26T11:42:09;0.80;;;0.80;;
9950;SDS011;24074;49.254;6.702;2024-02-26T11:44:38;1.10;;;0.90;;
9950;SDS011;24074;49.254;6.702;2024-02-26T11:47:11;1.00;;;0.90;;
9950;SDS011;24074;49.254;6.702;2024-02-26T11:49:37;1.83;;;0.87;;
9950;SDS011;24074;49.254;6.702;2024-02-26T11:52:07;1.47;;;1.37;;
9950;SDS011;24074;49.254;6.702;2024-02-26T11:54:43;1.47;;;1.10;;
9950;SDS011;24074;49.254;6.702;2024-02-26T11:57:24;2.00;;;1.60;;
9950;SDS011;24074;49.254;6.702;2024-02-26T11:59:54;1.80;;;1.60;;
9950;SDS011;24074;49.254;6.702;2024-02-26T12:05:15;1.93;;;1.50;;
9950;SDS011;24074;49.254;6.702;2024-02-26T12:07:47;1.00;;;1.00;;
9950;SDS011;24074;49.254;6.702;2024-02-26T12:10:27;1.23;;;1.00;;
9950;SDS011;24074;49.254;6.702;2024-02-26T12:12:59;1.73;;;1.10;;
9950;SDS011;24074;49.254;6.702;2024-02-26T12:15:30;1.20;;;1.10;;
9950;SDS011;24074;49.254;6.702;2024-02-26T12:18:04;1.40;;;1.27;;
9950;SDS011;24074;49.254;6.702;2024-02-26T12:20:31;1.20;;;1.10;;
9950;SDS011;24074;49.254;6.702;2024-02-26T12:22:57;1.50;;;1.40;;
9950;SDS011;24074;49.254;6.702;2024-02-26T12:25:24;1.83;;;1.20;;
9950;SDS011;24074;49.254;6.702;2024-02-26T12:27:51;1.10;;;1.00;;
9950;SDS011;24074;49.254;6.702;2024-02-26T12:30:18;1.70;;;1.20;;
9950;SDS011;24074;49.254;6.702;2024-02-26T12:32:44;1.10;;;1.00;;
9950;SDS011;24074;49.254;6.702;2024-02-26T12:35:14;1.00;;;0.90;;
9950;SDS011;24074;49.254;6.702;2024-02-26T12:37:41;0.53;;;0.50;;
9950;SDS011;24074;49.254;6.702;2024-02-26T12:40:10;0.73;;;0.67;;
9950;SDS011;24074;49.254;6.702;2024-02-26T12:42:37;0.77;;;0.73;;
9950;SDS011;24074;49.254;6.702;2024-02-26T12:45:07;0.67;;;0.57;;
9950;SDS011;24074;49.254;6.702;2024-02-26T12:47:35;0.93;;;0.80;;
9950;SDS011;24074;49.254;6.702;2024-02-26T12:50:02;0.93;;;0.73;;
9950;SDS011;24074;49.254;6.702;2024-02-26T12:52:29;1.20;;;0.80;;
9950;SDS011;24074;49.254;6.702;2024-02-26T12:55:05;1.27;;;1.00;;
9950;SDS011;24074;49.254;6.702;2024-02-26T12:57:35;0.80;;;0.80;;
9950;SDS011;24074;49.254;6.702;2024-02-26T13:00:03;4.10;;;1.60;;
9950;SDS011;24074;49.254;6.702;2024-02-26T13:02:31;2.30;;;1.47;;
9950;SDS011;24074;49.254;6.702;2024-02-26T13:04:57;1.20;;;1.10;;
9950;SDS011;24074;49.254;6.702;2024-02-26T13:07:26;1.73;;;1.00;;
9950;SDS011;24074;49.254;6.702;2024-02-26T13:09:52;1.10;;;0.97;;
9950;SDS011;24074;49.254;6.702;2024-02-26T13:12:18;1.37;;;0.93;;
9950;SDS011;24074;49.254;6.702;2024-02-26T13:14:44;2.90;;;1.20;;
9950;SDS011;24074;49.254;6.702;2024-02-26T13:17:09;1.37;;;0.90;;
9950;SDS011;24074;49.254;6.702;2024-02-26T13:19:48;1.70;;;1.00;;
9950;SDS011;24074;49.254;6.702;2024-02-26T13:22:15;1.10;;;1.00;;
9950;SDS011;24074;49.254;6.702;2024-02-26T13:24:41;0.97;;;0.83;;
9950;SDS011;24074;49.254;6.702;2024-02-26T13:27:07;1.20;;;1.10;;
9950;SDS011;24074;49.254;6.702;2024-02-26T13:29:33;1.03;;;0.90;;
9950;SDS011;24074;49.254;6.702;2024-02-26T13:31:59;1.40;;;0.93;;
9950;SDS011;24074;49.254;6.702;2024-02-26T13:34:25;1.37;;;1.07;;
9950;SDS011;24074;49.254;6.702;2024-02-26T13:36:56;1.17;;;0.90;;
9950;SDS011;24074;49.254;6.702;2024-02-26T13:39:25;1.20;;;0.90;;
9950;SDS011;24074;49.254;6.702;2024-02-26T13:41:52;1.10;;;1.00;;
9950;SDS011;24074;49.254;6.702;2024-02-26T13:44:21;1.33;;;1.00;;
9950;SDS011;24074;49.254;6.702;2024-02-26T13:46:47;1.20;;;1.00;;
9950;SDS011;24074;49.254;6.702;2024-02-26T13:49:14;1.30;;;0.90;;
9950;SDS011;24074;49.254;6.702;2024-02-26T13:51:40;1.10;;;1.00;;
9950;SDS011;24074;49.254;6.702;2024-02-26T13:54:06;1.37;;;1.10;;
9950;SDS011;24074;49.254;6.702;2024-02-26T13:56:32;1.63;;;1.10;;
9950;SDS011;24074;49.254;6.702;2024-02-26T13:58:58;1.73;;;1.50;;
9950;SDS011;24074;49.254;6.702;2024-02-26T14:01:24;1.83;;;1.60;;
9950;SDS011;24074;49.254;6.702;2024-02-26T14:03:50;1.93;;;1.20;;
9950;SDS011;24074;49.254;6.702;2024-02-26T14:06:16;2.40;;;1.20;;
9950;SDS011;24074;49.254;6.702;2024-02-26T14:08:42;3.20;;;1.20;;
9950;SDS011;24074;49.254;6.702;2024-02-26T14:11:07;0.80;;;0.80;;
9950;SDS011;24074;49.254;6.702;2024-02-26T14:13:33;1.03;;;0.90;;
9950;SDS011;24074;49.254;6.702;2024-02-26T14:15:59;1.30;;;1.10;;
9950;SDS011;24074;49.254;6.702;2024-02-26T14:18:25;2.73;;;0.80;;
9950;SDS011;24074;49.254;6.702;2024-02-26T14:20:52;1.63;;;1.00;;
9950;SDS011;24074;49.254;6.702;2024-02-26T14:23:18;1.00;;;0.80;;
9950;SDS011;24074;49.254;6.702;2024-02-26T14:25:43;1.57;;;0.80;;
9950;SDS011;24074;49.254;6.702;2024-02-26T14:28:09;1.33;;;0.90;;
9950;SDS011;24074;49.254;6.702;2024-02-26T14:30:34;0.90;;;0.90;;
9950;SDS011;24074;49.254;6.702;2024-02-26T14:33:00;1.10;;;1.00;;
9950;SDS011;24074;49.254;6.702;2024-02-26T14:35:26;1.47;;;1.17;;
9950;SDS011;24074;49.254;6.702;2024-02-26T14:37:51;1.60;;;1.00;;
9950;SDS011;24074;49.254;6.702;2024-02-26T14:40:17;1.43;;;1.10;;
9950;SDS011;24074;49.254;6.702;2024-02-26T14:42:44;1.20;;;1.10;;
9950;SDS011;24074;49.254;6.702;2024-02-26T14:45:09;1.50;;;1.30;;
9950;SDS011;24074;49.254;6.702;2024-02-26T14:47:38;1.00;;;0.90;;
9950;SDS011;24074;49.254;6.702;2024-02-26T14:50:04;1.40;;;1.20;;
9950;SDS011;24074;49.254;6.702;2024-02-26T14:52:29;1.90;;;1.00;;
9950;SDS011;24074;49.254;6.702;2024-02-26T14:54:55;1.23;;;1.03;;
9950;SDS011;24074;49.254;6.702;2024-02-26T14:57:23;2.27;;;1.40;;
9950;SDS011;24074;49.254;6.702;2024-02-26T14:59:49;1.87;;;1.30;;
9950;SDS011;24074;49.254;6.702;2024-02-26T15:02:15;3.73;;;1.50;;